Time;durP1;ratioP1;P1;durP2;ratioP2;P2;SDS_P1;SDS_P2;PMS_P1;PMS_P2;Temp;Humidity;BMP_temperature;BMP_pressure;BME280_temperature;BME280_humidity;BME280_pressure;Samples;Min_cycle;Max_cycle;Signal;HPM_P1;HPM_P2
2022/08/07 00:00:11;;;;;;;;;;;;;;;17.14;40.94;99581.41;2618214;54;19955;-66
2022/08/07 00:02:41;;;;;;;;;;;;;;;17.02;41.38;99575.97;2617383;54;19946;-66
2022/08/07 00:05:12;;;;;;;;;;;;;;;17.03;41.75;99580.28;2617349;54;19951;-67
2022/08/07 00:07:42;;;;;;;;;;;;;;;17.03;41.61;99580.28;2617789;54;19939;-66
2022/08/07 00:10:14;;;;;;;;;;;;;;;17.03;41.70;99576.78;2617971;54;19939;-65
2022/08/07 00:12:58;;;;;;;;;;;;;;;16.94;42.17;99575.38;2618048;54;19954;-65
2022/08/07 00:15:30;;;;;;;;;;;;;;;16.87;41.73;99574.63;2617969;54;19954;-66
2022/08/07 00:18:15;;;;;;;;;;;;;;;16.86;42.15;99578.31;2617297;54;19938;-66
2022/08/07 00:20:48;;;;;;;;;;;;;;;16.78;42.27;99569.53;2617490;47;19938;-66
2022/08/07 00:23:17;;;;;;;;;;;;;;;16.81;42.20;99562.94;2618010;54;19946;-66
2022/08/07 00:25:52;;;;;;;;;;;;;;;16.79;42.04;99559.69;2617884;54;20053;-67
2022/08/07 00:28:29;;;;;;;;;;;;;;;16.72;42.30;99570.34;2617285;54;20058;-67
2022/08/07 00:31:03;;;;;;;;;;;;;;;16.73;42.58;99553.31;2618021;54;19977;-66
2022/08/07 00:33:36;;;;;;;;;;;;;;;16.54;43.12;99555.06;2618388;47;19946;-66
2022/08/07 00:36:06;;;;;;;;;;;;;;;16.40;43.62;99556.13;2619791;54;19947;-66
2022/08/07 00:38:36;;;;;;;;;;;;;;;16.37;43.35;99556.56;2619547;54;19946;-66
2022/08/07 00:41:10;;;;;;;;;;;;;;;16.33;43.59;99550.84;2617496;47;19946;-66
2022/08/07 00:43:43;;;;;;;;;;;;;;;16.35;43.82;99556.75;2617871;54;19953;-66
2022/08/07 00:46:30;;;;;;;;;;;;;;;16.35;43.78;99551.44;2617339;47;19946;-66
2022/08/07 00:49:02;;;;;;;;;;;;;;;16.24;44.06;99548.59;2618536;54;19946;-67
2022/08/07 00:51:32;;;;;;;;;;;;;;;16.27;43.66;99551.66;2617940;54;19943;-67
2022/08/07 00:54:21;;;;;;;;;;;;;;;16.30;43.97;99548.59;2617552;54;19949;-67
2022/08/07 00:56:54;;;;;;;;;;;;;;;16.29;43.84;99546.13;2618452;54;19938;-66
2022/08/07 00:59:23;;;;;;;;;;;;;;;16.18;44.17;99544.94;2618071;39;20354;-66
2022/08/07 01:02:04;;;;;;;;;;;;;;;16.10;44.46;99538.00;2618006;47;20062;-66
2022/08/07 01:04:37;;;;;;;;;;;;;;;16.03;44.73;99542.50;2617705;54;19969;-66
2022/08/07 01:07:12;;;;;;;;;;;;;;;16.07;44.40;99546.41;2617723;54;19989;-67
2022/08/07 01:09:42;;;;;;;;;;;;;;;16.12;44.45;99547.63;2618372;54;19939;-66
2022/08/07 01:12:34;;;;;;;;;;;;;;;16.12;44.53;99545.75;2618464;54;19939;-67
2022/08/07 01:15:04;;;;;;;;;;;;;;;15.99;44.76;99548.47;2617596;54;19938;-67
2022/08/07 01:17:34;;;;;;;;;;;;;;;15.88;44.96;99536.63;2617057;47;19938;-66
2022/08/07 01:20:06;;;;;;;;;;;;;;;15.70;45.15;99534.59;2617646;54;19938;-66
2022/08/07 01:22:39;;;;;;;;;;;;;;;15.66;45.26;99546.69;2617696;54;19938;-66
2022/08/07 01:25:30;;;;;;;;;;;;;;;15.70;45.33;99541.78;2617353;50;20066;-66
2022/08/07 01:28:20;;;;;;;;;;;;;;;15.59;45.37;99543.19;2617231;47;19942;-66
2022/08/07 01:30:53;;;;;;;;;;;;;;;15.54;45.70;99548.31;2617765;47;19945;-66
2022/08/07 01:33:26;;;;;;;;;;;;;;;15.55;45.63;99545.47;2617491;47;19954;-66
2022/08/07 01:36:16;;;;;;;;;;;;;;;15.58;45.80;99541.56;2617544;54;19951;-66
2022/08/07 01:38:50;;;;;;;;;;;;;;;15.56;45.98;99543.63;2617570;54;19947;-66
2022/08/07 01:41:24;;;;;;;;;;;;;;;15.50;46.29;99547.91;2617375;47;19947;-66
2022/08/07 01:43:58;;;;;;;;;;;;;;;15.51;46.36;99548.72;2617137;54;19953;-66
2022/08/07 01:46:31;;;;;;;;;;;;;;;15.51;46.18;99543.41;2616962;54;20438;-66
2022/08/07 01:49:00;;;;;;;;;;;;;;;15.28;46.46;99543.84;2617039;54;20434;-66
2022/08/07 01:51:32;;;;;;;;;;;;;;;15.19;46.97;99545.88;2617073;47;19946;-66
2022/08/07 01:54:24;;;;;;;;;;;;;;;15.22;47.29;99547.31;2617935;54;19947;-66
2022/08/07 01:57:09;;;;;;;;;;;;;;;15.29;47.02;99548.13;2616787;54;19951;-66
2022/08/07 02:00:01;;;;;;;;;;;;;;;15.26;47.22;99545.88;2617018;47;19954;-66
2022/08/07 02:02:43;;;;;;;;;;;;;;;15.29;46.87;99543.63;2617834;54;20005;-66
2022/08/07 02:05:35;;;;;;;;;;;;;;;15.29;46.87;99537.47;2617066;54;19957;-66
2022/08/07 02:08:26;;;;;;;;;;;;;;;15.35;46.95;99534.81;2616780;47;19938;-66
2022/08/07 02:11:00;;;;;;;;;;;;;;;15.39;47.12;99540.56;2617445;54;19973;-66
2022/08/07 02:13:34;;;;;;;;;;;;;;;15.27;46.92;99535.03;2617248;39;20361;-66
2022/08/07 02:16:26;;;;;;;;;;;;;;;15.01;47.17;99537.66;2617298;54;19951;-66
2022/08/07 02:19:03;;;;;;;;;;;;;;;14.97;47.64;99536.44;2617785;47;19942;-66
2022/08/07 02:21:54;;;;;;;;;;;;;;;14.98;48.10;99525.59;2617872;54;20026;-66
2022/08/07 02:24:27;;;;;;;;;;;;;;;15.02;48.05;99524.16;2617858;54;19953;-67
2022/08/07 02:27:02;;;;;;;;;;;;;;;14.92;47.98;99530.91;2616679;54;19950;-66
2022/08/07 02:29:34;;;;;;;;;;;;;;;14.85;48.19;99522.91;2617674;47;19939;-66
2022/08/07 02:32:17;;;;;;;;;;;;;;;14.78;48.76;99512.25;2617716;54;19946;-66
2022/08/07 02:34:52;;;;;;;;;;;;;;;14.83;48.80;99522.28;2617407;54;19953;-67
2022/08/07 02:37:26;;;;;;;;;;;;;;;14.78;48.70;99512.25;2617506;54;19970;-66
2022/08/07 02:40:04;;;;;;;;;;;;;;;14.90;48.87;99515.16;2617613;54;19946;-66
2022/08/07 02:42:59;;;;;;;;;;;;;;;14.89;48.30;99523.31;2617777;51;19953;-67
2022/08/07 02:45:30;;;;;;;;;;;;;;;14.78;48.88;99517.59;2617544;54;19947;-66
2022/08/07 02:48:19;;;;;;;;;;;;;;;14.80;49.06;99515.53;2618256;54;19950;-67
2022/08/07 02:50:51;;;;;;;;;;;;;;;14.89;48.64;99513.47;2617719;47;19951;-67
2022/08/07 02:53:23;;;;;;;;;;;;;;;14.92;48.85;99505.09;2617737;54;19946;-66
2022/08/07 02:55:58;;;;;;;;;;;;;;;14.93;48.87;99508.56;2617487;47;19939;-66
2022/08/07 02:58:38;;;;;;;;;;;;;;;14.96;48.71;99510.84;2617475;54;19953;-66
2022/08/07 03:01:16;;;;;;;;;;;;;;;14.78;48.66;99511.44;2617962;39;20413;-66
2022/08/07 03:04:05;;;;;;;;;;;;;;;14.51;49.82;99510.56;2617596;50;19947;-67
2022/08/07 03:06:41;;;;;;;;;;;;;;;14.53;49.48;99505.84;2617250;47;19943;-66
2022/08/07 03:09:15;;;;;;;;;;;;;;;14.49;49.73;99500.13;2618059;54;19939;-66
2022/08/07 03:12:05;;;;;;;;;;;;;;;14.51;50.02;99498.06;2617664;54;19958;-67
2022/08/07 03:14:40;;;;;;;;;;;;;;;14.61;49.89;99503.00;2618134;54;19946;-67
2022/08/07 03:17:17;;;;;;;;;;;;;;;14.55;49.46;99495.84;2618669;31;20450;-67
2022/08/07 03:19:47;;;;;;;;;;;;;;;14.56;49.82;99494.81;2618098;47;19938;-67
2022/08/07 03:22:26;;;;;;;;;;;;;;;14.60;49.72;99498.69;2618152;47;19947;-67
2022/08/07 03:25:00;;;;;;;;;;;;;;;14.67;50.03;99496.88;2618190;51;19946;-67
2022/08/07 03:27:37;;;;;;;;;;;;;;;14.70;49.39;99495.66;2618118;54;19947;-67
2022/08/07 03:30:31;;;;;;;;;;;;;;;14.56;49.53;99497.47;2619488;54;19945;-67
2022/08/07 03:33:03;;;;;;;;;;;;;;;14.44;50.10;99491.06;2619131;54;19971;-66
2022/08/07 03:35:37;;;;;;;;;;;;;;;14.21;50.44;99497.56;2619111;51;20434;-67
2022/08/07 03:38:18;;;;;;;;;;;;;;;14.17;50.78;99501.63;2617745;54;20453;-67
2022/08/07 03:40:52;;;;;;;;;;;;;;;14.13;51.02;99498.53;2618019;46;19939;-66
2022/08/07 03:43:26;;;;;;;;;;;;;;;14.16;51.03;99499.16;2617710;47;20430;-66
2022/08/07 03:46:06;;;;;;;;;;;;;;;14.24;50.61;99499.78;2617559;54;19942;-66
2022/08/07 03:48:49;;;;;;;;;;;;;;;14.14;51.04;99499.34;2617736;54;19946;-66
2022/08/07 03:51:36;;;;;;;;;;;;;;;14.07;50.93;99498.50;2617428;54;19946;-66
2022/08/07 03:54:24;;;;;;;;;;;;;;;14.12;51.12;99498.72;2617523;54;19986;-66
2022/08/07 03:57:14;;;;;;;;;;;;;;;13.96;51.41;99499.06;2617155;47;19953;-67
2022/08/07 04:02:58;;;;;;;;;;;;;;;13.92;51.18;99508.44;2607665;54;19947;-65
2022/08/07 04:05:37;;;;;;;;;;;;;;;13.95;51.33;99505.41;2622641;54;19950;-64
2022/08/07 04:08:13;;;;;;;;;;;;;;;13.83;51.82;99505.94;2621910;54;19997;-65
2022/08/07 04:10:47;;;;;;;;;;;;;;;13.92;51.81;99505.78;2622163;54;19938;-64
2022/08/07 04:13:38;;;;;;;;;;;;;;;13.92;51.60;99506.63;2623698;54;19958;-63
2022/08/07 04:16:28;;;;;;;;;;;;;;;13.89;51.73;99512.31;2624394;54;20434;-65
2022/08/07 04:19:05;;;;;;;;;;;;;;;13.86;51.70;99516.19;2624123;54;19939;-63
2022/08/07 04:21:48;;;;;;;;;;;;;;;13.92;51.59;99519.06;2621509;47;19945;-63
2022/08/07 04:24:41;;;;;;;;;;;;;;;13.96;51.65;99520.31;2620997;47;19947;-64
2022/08/07 04:27:14;;;;;;;;;;;;;;;14.00;51.64;99519.75;2621907;39;20345;-63
2022/08/07 04:29:57;;;;;;;;;;;;;;;13.78;52.12;99519.00;2621019;47;20498;-63
2022/08/07 04:32:45;;;;;;;;;;;;;;;13.85;51.96;99511.09;2621015;46;19947;-64
2022/08/07 04:35:20;;;;;;;;;;;;;;;13.82;51.90;99522.09;2622030;39;20405;-64
2022/08/07 04:37:52;;;;;;;;;;;;;;;13.89;52.43;99522.97;2620602;51;19939;-64
2022/08/07 04:40:36;;;;;;;;;;;;;;;13.88;52.27;99530.13;2621069;54;19965;-64
2022/08/07 04:43:32;;;;;;;;;;;;;;;13.97;52.43;99527.31;2620942;54;19942;-64
2022/08/07 04:46:24;;;;;;;;;;;;;;;14.07;51.86;99530.41;2621416;39;20770;-63
2022/08/07 04:49:11;;;;;;;;;;;;;;;13.88;51.68;99543.41;2621110;54;19938;-63
2022/08/07 04:51:57;;;;;;;;;;;;;;;13.94;52.11;99539.13;2622181;31;20407;-63
2022/08/07 04:54:32;;;;;;;;;;;;;;;13.98;52.11;99543.03;2621351;54;20071;-64
2022/08/07 04:57:09;;;;;;;;;;;;;;;14.12;51.73;99546.56;2621436;47;19954;-64
2022/08/07 05:00:01;;;;;;;;;;;;;;;14.10;52.03;99540.66;2622744;54;19923;-66
2022/08/07 05:02:50;;;;;;;;;;;;;;;14.11;52.15;99542.28;2622490;54;19946;-65
2022/08/07 05:05:24;;;;;;;;;;;;;;;14.17;51.74;99546.81;2622701;47;19983;-67
2022/08/07 05:08:22;;;;;;;;;;;;;;;14.13;51.99;99543.75;2622953;47;19951;-66
2022/08/07 05:11:13;;;;;;;;;;;;;;;14.20;51.74;99545.59;2622907;47;19949;-65
2022/08/07 05:13:55;;;;;;;;;;;;;;;14.28;51.82;99548.09;2623567;39;20334;-66
2022/08/07 05:16:46;;;;;;;;;;;;;;;14.40;51.41;99553.66;2622398;54;19990;-65
2022/08/07 05:19:26;;;;;;;;;;;;;;;14.45;51.47;99545.91;2621881;47;19946;-66
2022/08/07 05:22:15;;;;;;;;;;;;;;;14.49;51.36;99545.34;2622626;54;19939;-65
2022/08/07 05:25:01;;;;;;;;;;;;;;;14.68;51.62;99553.56;2622943;54;19954;-66
2022/08/07 05:27:37;;;;;;;;;;;;;;;14.88;51.16;99556.28;2622969;54;19945;-64
2022/08/07 05:30:27;;;;;;;;;;;;;;;14.85;50.50;99560.16;2623477;54;19953;-65
2022/08/07 05:33:03;;;;;;;;;;;;;;;14.83;50.84;99555.06;2622704;54;19946;-64
2022/08/07 05:35:34;;;;;;;;;;;;;;;15.00;50.40;99560.00;2623207;54;19950;-66
2022/08/07 05:38:12;;;;;;;;;;;;;;;15.13;50.32;99562.66;2623377;39;20439;-65
2022/08/07 05:41:05;;;;;;;;;;;;;;;15.31;49.80;99567.41;2623379;39;20338;-64
2022/08/07 05:43:48;;;;;;;;;;;;;;;15.47;48.96;99559.00;2622828;54;19946;-64
2022/08/07 05:46:38;;;;;;;;;;;;;;;15.57;48.97;99570.06;2622951;54;19945;-64
2022/08/07 05:49:11;;;;;;;;;;;;;;;15.67;48.20;99564.31;2623720;54;19950;-65
2022/08/07 05:51:46;;;;;;;;;;;;;;;15.73;47.71;99568.03;2623619;54;19953;-64
2022/08/07 05:54:21;;;;;;;;;;;;;;;15.82;47.97;99564.94;2623874;47;20006;-63
2022/08/07 05:57:19;;;;;;;;;;;;;;;15.99;47.30;99567.16;2623152;54;19946;-64
2022/08/07 05:59:49;;;;;;;;;;;;;;;16.10;47.21;99563.84;2624122;47;19939;-64
2022/08/07 06:02:28;;;;;;;;;;;;;;;16.20;46.89;99560.72;2623931;54;19939;-67
2022/08/07 06:05:04;;;;;;;;;;;;;;;16.22;46.24;99567.50;2621144;54;20461;-66
2022/08/07 06:07:35;;;;;;;;;;;;;;;16.21;46.24;99557.88;2620221;54;19945;-67
2022/08/07 06:10:26;;;;;;;;;;;;;;;16.30;46.05;99564.59;2620323;47;19946;-67
2022/08/07 06:12:59;;;;;;;;;;;;;;;16.48;46.34;99563.06;2620879;47;19962;-69
2022/08/07 06:15:31;;;;;;;;;;;;;;;16.67;46.00;99572.84;2620442;54;19949;-69
2022/08/07 06:18:13;;;;;;;;;;;;;;;16.76;45.50;99570.78;2620560;47;19939;-66
2022/08/07 06:20:45;;;;;;;;;;;;;;;16.81;44.94;99574.44;2621204;54;20034;-65
2022/08/07 06:23:36;;;;;;;;;;;;;;;16.91;45.15;99567.81;2621638;47;20485;-66
2022/08/07 06:26:27;;;;;;;;;;;;;;;17.05;44.66;99566.69;2620913;54;19946;-68
2022/08/07 06:29:02;;;;;;;;;;;;;;;17.15;44.80;99571.56;2620987;54;20434;-66
2022/08/07 06:31:35;;;;;;;;;;;;;;;17.17;44.17;99572.16;2621228;47;19954;-66
2022/08/07 06:34:20;;;;;;;;;;;;;;;17.18;44.27;99568.44;2621290;54;19947;-64
2022/08/07 06:36:51;;;;;;;;;;;;;;;17.20;44.33;99569.88;2620892;47;19947;-65
2022/08/07 06:39:27;;;;;;;;;;;;;;;17.32;44.06;99562.78;2620859;51;19946;-66
2022/08/07 06:42:20;;;;;;;;;;;;;;;17.50;44.15;99564.69;2621841;51;19950;-68
2022/08/07 06:45:33;;;;;;;;;;;;;;;17.63;43.40;99565.59;2625467;39;20369;-66
2022/08/07 06:48:06;;;;;;;;;;;;;;;17.71;43.65;99566.16;2622558;54;19947;-66
2022/08/07 06:50:44;;;;;;;;;;;;;;;17.91;43.59;99565.97;2622278;47;20450;-66
2022/08/07 06:53:20;;;;;;;;;;;;;;;18.06;42.85;99562.97;2620346;47;19938;-69
2022/08/07 06:56:14;;;;;;;;;;;;;;;18.25;42.95;99564.59;2620323;54;20437;-67
2022/08/07 06:58:48;;;;;;;;;;;;;;;18.35;41.40;99555.22;2620383;46;19947;-67
2022/08/07 07:01:43;;;;;;;;;;;;;;;18.40;40.73;99556.16;2620265;47;19946;-67
2022/08/07 07:04:19;;;;;;;;;;;;;;;18.48;41.04;99563.88;2620258;54;19973;-66
2022/08/07 07:07:02;;;;;;;;;;;;;;;18.60;40.49;99560.44;2620166;54;19951;-66
2022/08/07 07:09:52;;;;;;;;;;;;;;;18.69;40.47;99559.09;2620860;54;19947;-68
2022/08/07 07:12:25;;;;;;;;;;;;;;;18.74;39.66;99554.72;2619903;54;20030;-66
2022/08/07 07:15:02;;;;;;;;;;;;;;;18.80;39.64;99553.81;2621636;54;19950;-67
2022/08/07 07:17:43;;;;;;;;;;;;;;;18.81;39.91;99551.94;2621940;54;19939;-66
2022/08/07 07:20:16;;;;;;;;;;;;;;;18.82;39.28;99550.91;2620178;47;20423;-66
2022/08/07 07:22:48;;;;;;;;;;;;;;;18.93;39.35;99549.31;2621421;54;20415;-65
2022/08/07 07:25:40;;;;;;;;;;;;;;;19.01;39.61;99547.09;2622849;54;20070;-65
2022/08/07 07:28:34;;;;;;;;;;;;;;;19.19;39.22;99554.28;2623795;39;20370;-67
2022/08/07 07:31:28;;;;;;;;;;;;;;;19.29;38.73;99551.00;2622211;46;19946;-66
2022/08/07 07:34:12;;;;;;;;;;;;;;;19.37;39.13;99547.19;2622301;54;19950;-66
2022/08/07 07:36:45;;;;;;;;;;;;;;;19.46;38.91;99545.78;2621207;54;19946;-68
2022/08/07 07:39:21;;;;;;;;;;;;;;;19.52;38.64;99548.38;2620328;54;19946;-65
2022/08/07 07:41:54;;;;;;;;;;;;;;;19.65;38.19;99549.22;2622279;54;19961;-66
2022/08/07 07:44:48;;;;;;;;;;;;;;;19.59;38.49;99548.22;2621979;39;20342;-66
2022/08/07 07:47:18;;;;;;;;;;;;;;;19.65;38.46;99541.16;2621327;54;19978;-67
2022/08/07 07:50:11;;;;;;;;;;;;;;;19.72;38.33;99545.38;2619261;47;19939;-64
2022/08/07 07:53:01;;;;;;;;;;;;;;;19.78;38.73;99539.03;2619751;54;19954;-64
2022/08/07 07:55:32;;;;;;;;;;;;;;;19.85;38.15;99533.56;2619614;54;20422;-64
2022/08/07 07:58:14;;;;;;;;;;;;;;;19.81;38.26;99536.97;2619569;54;19946;-64
2022/08/07 08:00:47;;;;;;;;;;;;;;;19.94;38.64;99531.34;2619974;54;19946;-65
2022/08/07 08:03:23;;;;;;;;;;;;;;;20.10;38.19;99533.28;2620039;54;19938;-64
2022/08/07 08:06:16;;;;;;;;;;;;;;;20.25;38.16;99525.56;2619589;54;19950;-67
2022/08/07 08:08:46;;;;;;;;;;;;;;;20.18;38.54;99514.13;2620399;54;19957;-66
2022/08/07 08:11:16;;;;;;;;;;;;;;;20.28;38.07;99521.56;2621430;54;19938;-65
2022/08/07 08:14:06;;;;;;;;;;;;;;;20.29;38.42;99525.91;2620879;54;19970;-65
2022/08/07 08:16:36;;;;;;;;;;;;;;;20.42;38.24;99522.94;2621548;54;19947;-66
2022/08/07 08:19:08;;;;;;;;;;;;;;;20.36;38.52;99523.88;2621903;54;19938;-65
2022/08/07 08:27:48;;;;;;;;;;;;;;;21.01;38.60;99522.66;2621200;54;20004;-65
2022/08/07 08:30:30;;;;;;;;;;;;;;;21.03;38.26;99521.38;2621355;54;19953;-65
2022/08/07 08:33:05;;;;;;;;;;;;;;;21.17;38.07;99513.78;2622078;54;19950;-64
2022/08/07 08:35:44;;;;;;;;;;;;;;;21.08;38.42;99501.81;2622810;54;19939;-66
2022/08/07 08:38:23;;;;;;;;;;;;;;;21.26;38.58;99512.31;2622586;54;19947;-66
2022/08/07 08:41:03;;;;;;;;;;;;;;;21.41;39.53;99509.09;2621868;54;19957;-65
2022/08/07 08:43:37;;;;;;;;;;;;;;;21.59;39.32;99509.88;2622605;54;19938;-64
2022/08/07 08:46:14;;;;;;;;;;;;;;;21.60;39.08;99506.13;2621959;54;19959;-64
2022/08/07 08:48:46;;;;;;;;;;;;;;;21.47;39.08;99507.28;2621729;39;20347;-65
2022/08/07 08:51:26;;;;;;;;;;;;;;;21.53;39.14;99500.94;2622060;39;20358;-65
2022/08/07 08:54:25;;;;;;;;;;;;;;;21.60;39.93;99500.75;2621273;31;20592;-66
2022/08/07 08:56:56;;;;;;;;;;;;;;;21.72;39.03;99486.13;2620307;39;20366;-65
2022/08/07 08:59:29;;;;;;;;;;;;;;;21.88;39.23;99497.06;2621132;54;19946;-65
2022/08/07 09:02:14;;;;;;;;;;;;;;;21.91;39.13;99494.69;2621547;54;19951;-64
2022/08/07 09:05:09;;;;;;;;;;;;;;;22.09;39.38;99487.41;2619738;39;20343;-66
2022/08/07 09:07:48;;;;;;;;;;;;;;;22.22;39.46;99492.44;2619350;54;19939;-65
2022/08/07 09:10:34;;;;;;;;;;;;;;;22.02;39.33;99491.09;2621025;54;20458;-65
2022/08/07 09:13:09;;;;;;;;;;;;;;;22.18;39.42;99485.91;2622284;54;19993;-66
2022/08/07 09:15:46;;;;;;;;;;;;;;;22.33;39.66;99485.25;2623675;54;20442;-65
2022/08/07 09:18:49;;;;;;;;;;;;;;;22.49;39.47;99471.72;2623756;54;20078;-66
2022/08/07 09:21:33;;;;;;;;;;;;;;;22.61;38.54;99468.03;2622890;54;20008;-64
2022/08/07 09:24:33;;;;;;;;;;;;;;;22.58;39.25;99473.97;2622489;54;19965;-65
2022/08/07 09:27:37;;;;;;;;;;;;;;;22.70;38.84;99470.03;2621940;54;19949;-67
2022/08/07 09:30:29;;;;;;;;;;;;;;;22.74;38.83;99468.44;2621971;46;19942;-66
2022/08/07 09:33:05;;;;;;;;;;;;;;;22.86;38.67;99465.59;2623590;39;20345;-66
2022/08/07 09:35:58;;;;;;;;;;;;;;;23.16;37.97;99475.00;2622770;39;20330;-66
2022/08/07 09:38:40;;;;;;;;;;;;;;;23.01;37.66;99462.22;2622647;54;19947;-65
2022/08/07 09:41:18;;;;;;;;;;;;;;;23.02;37.73;99460.31;2622585;54;19946;-65
2022/08/07 09:44:00;;;;;;;;;;;;;;;22.98;37.80;99457.34;2622675;54;19950;-66
2022/08/07 09:46:57;;;;;;;;;;;;;;;23.26;37.55;99452.69;2622442;54;19946;-65
2022/08/07 09:49:54;;;;;;;;;;;;;;;23.34;37.33;99441.41;2621100;54;19998;-67
2022/08/07 09:52:48;;;;;;;;;;;;;;;23.34;37.15;99444.91;2620882;54;19974;-67
2022/08/07 09:55:23;;;;;;;;;;;;;;;23.26;36.92;99439.19;2620689;54;19942;-68
2022/08/07 09:58:15;;;;;;;;;;;;;;;23.51;35.95;99436.63;2620473;54;19977;-68
2022/08/07 10:01:02;;;;;;;;;;;;;;;23.74;35.55;99443.53;2619747;47;19971;-67
2022/08/07 10:03:47;;;;;;;;;;;;;;;23.75;35.48;99436.25;2620571;54;19958;-64
2022/08/07 10:06:48;;;;;;;;;;;;;;;23.67;35.94;99415.97;2620310;54;20034;-67
2022/08/07 10:09:40;;;;;;;;;;;;;;;23.83;35.49;99419.53;2620379;54;19946;-67
2022/08/07 10:12:49;;;;;;;;;;;;;;;23.55;35.18;99415.34;2620963;31;20498;-67
2022/08/07 10:15:37;;;;;;;;;;;;;;;23.71;34.07;99412.47;2620351;54;20002;-65
2022/08/07 10:18:25;;;;;;;;;;;;;;;23.89;32.93;99419.31;2623653;54;20032;-66
2022/08/07 10:21:13;;;;;;;;;;;;;;;23.87;32.60;99421.44;2624866;47;19953;-67
2022/08/07 18:50:30;;;;;;;;;;;;;;;24.81;25.17;99210.47;2591795;54;19952;-67
2022/08/07 18:53:17;;;;;;;;;;;;;;;24.64;25.23;99206.19;2626843;39;20330;-67
2022/08/07 18:56:00;;;;;;;;;;;;;;;24.58;25.40;99215.41;2625769;39;20351;-65
2022/08/07 18:58:39;;;;;;;;;;;;;;;24.51;25.44;99214.09;2623921;54;19953;-65
2022/08/07 19:01:21;;;;;;;;;;;;;;;24.43;25.47;99213.56;2621575;54;19939;-66
2022/08/07 19:04:13;;;;;;;;;;;;;;;24.30;25.67;99222.19;2620923;46;20361;-66
2022/08/07 19:07:06;;;;;;;;;;;;;;;24.24;26.19;99223.28;2618150;54;19966;-66
2022/08/07 19:09:38;;;;;;;;;;;;;;;24.14;26.25;99228.69;2617746;54;19954;-65
2022/08/07 19:12:31;;;;;;;;;;;;;;;24.04;26.19;99232.19;2618563;54;19969;-66
2022/08/07 19:15:05;;;;;;;;;;;;;;;23.96;26.28;99232.72;2618470;54;19939;-67
2022/08/07 19:18:07;;;;;;;;;;;;;;;23.93;26.08;99242.19;2618911;31;20422;-67
2022/08/07 19:20:44;;;;;;;;;;;;;;;23.84;26.72;99251.91;2618201;54;19954;-67
2022/08/07 19:23:40;;;;;;;;;;;;;;;23.73;26.87;99256.47;2618548;54;19954;-67
2022/08/07 19:26:30;;;;;;;;;;;;;;;23.77;26.28;99259.47;2618250;54;20840;-66
2022/08/07 19:29:20;;;;;;;;;;;;;;;23.70;26.61;99259.72;2618410;54;19947;-66
2022/08/07 19:32:10;;;;;;;;;;;;;;;23.61;26.47;99255.09;2618380;54;19954;-66
2022/08/07 19:34:58;;;;;;;;;;;;;;;23.48;26.79;99262.59;2617709;47;19942;-67
2022/08/07 19:37:28;;;;;;;;;;;;;;;23.46;26.74;99263.94;2618258;54;19947;-67
2022/08/07 19:40:20;;;;;;;;;;;;;;;23.44;27.06;99272.31;2618339;54;19946;-67
2022/08/07 19:43:03;;;;;;;;;;;;;;;23.27;27.72;99270.88;2618911;54;19950;-67
2022/08/07 19:45:36;;;;;;;;;;;;;;;23.24;27.47;99274.94;2618345;54;19954;-68
2022/08/07 19:48:30;;;;;;;;;;;;;;;23.20;27.52;99277.34;2618293;54;19947;-67
2022/08/07 19:51:13;;;;;;;;;;;;;;;23.21;27.67;99286.25;2617577;54;19951;-68
2022/08/07 19:54:03;;;;;;;;;;;;;;;23.22;27.67;99287.88;2618476;54;20533;-67
2022/08/07 19:56:56;;;;;;;;;;;;;;;23.12;27.41;99288.63;2617514;51;20033;-67
2022/08/07 19:59:47;;;;;;;;;;;;;;;23.05;28.28;99282.66;2618324;54;19954;-66
2022/08/07 20:02:19;;;;;;;;;;;;;;;22.99;28.45;99291.81;2618231;54;19954;-67
2022/08/07 20:04:50;;;;;;;;;;;;;;;22.92;28.84;99294.75;2617686;47;19951;-67
2022/08/07 20:07:26;;;;;;;;;;;;;;;22.88;28.96;99296.31;2618125;54;20426;-67
2022/08/07 20:10:17;;;;;;;;;;;;;;;22.84;29.19;99299.78;2617565;54;19950;-68
2022/08/07 20:13:12;;;;;;;;;;;;;;;22.75;29.24;99299.47;2619188;54;19981;-67
2022/08/07 20:15:51;;;;;;;;;;;;;;;22.64;29.98;99297.78;2621508;54;19947;-67
2022/08/07 20:18:23;;;;;;;;;;;;;;;22.56;29.67;99304.44;2622527;54;19939;-67
2022/08/07 20:21:01;;;;;;;;;;;;;;;22.42;30.39;99305.97;2621473;54;19947;-67
2022/08/07 20:23:31;;;;;;;;;;;;;;;22.35;30.46;99308.88;2620654;54;19947;-67
2022/08/07 20:26:16;;;;;;;;;;;;;;;22.27;30.83;99309.34;2620166;54;19946;-67
2022/08/07 20:29:05;;;;;;;;;;;;;;;22.19;31.21;99307.94;2620611;54;19946;-67
2022/08/07 20:31:53;;;;;;;;;;;;;;;22.17;31.38;99311.97;2620347;54;19961;-67
2022/08/07 20:34:26;;;;;;;;;;;;;;;22.16;31.58;99303.06;2619067;54;20030;-67
2022/08/07 20:37:16;;;;;;;;;;;;;;;22.11;31.56;99312.94;2617616;47;20034;-66
2022/08/07 20:39:51;;;;;;;;;;;;;;;22.05;32.17;99311.28;2618232;54;19946;-65
2022/08/07 20:42:33;;;;;;;;;;;;;;;22.09;31.77;99309.72;2618599;39;20350;-67
2022/08/07 20:45:06;;;;;;;;;;;;;;;21.86;32.18;99300.06;2618040;54;19946;-66
2022/08/07 20:47:57;;;;;;;;;;;;;;;21.67;32.03;99308.47;2617953;54;20054;-66
2022/08/07 20:50:28;;;;;;;;;;;;;;;21.55;32.03;99302.41;2617958;54;20002;-66
2022/08/07 20:52:59;;;;;;;;;;;;;;;21.47;31.99;99301.00;2617870;54;19939;-67
2022/08/07 20:55:29;;;;;;;;;;;;;;;21.30;32.83;99300.22;2617512;54;19950;-68
2022/08/07 20:58:05;;;;;;;;;;;;;;;21.27;32.87;99298.03;2617888;54;20430;-67
2022/08/07 21:00:54;;;;;;;;;;;;;;;21.23;32.90;99305.00;2617954;54;19953;-67
2022/08/07 21:03:24;;;;;;;;;;;;;;;21.14;33.24;99299.22;2618369;54;19953;-67
2022/08/07 21:05:57;;;;;;;;;;;;;;;21.04;33.63;99299.09;2617767;54;20452;-66
2022/08/07 21:08:29;;;;;;;;;;;;;;;20.98;33.60;99302.75;2617732;54;20446;-67
2022/08/07 21:11:09;;;;;;;;;;;;;;;20.87;34.16;99301.81;2618327;39;20330;-67
2022/08/07 21:13:46;;;;;;;;;;;;;;;20.82;34.08;99300.91;2617811;54;20468;-68
2022/08/07 21:16:40;;;;;;;;;;;;;;;20.69;34.44;99299.41;2617693;54;20022;-68
2022/08/07 21:19:31;;;;;;;;;;;;;;;20.60;35.04;99303.56;2617839;54;20062;-66
2022/08/07 21:22:22;;;;;;;;;;;;;;;20.48;35.19;99296.41;2617660;54;19939;-66
2022/08/07 21:25:06;;;;;;;;;;;;;;;20.46;35.45;99297.69;2617448;47;19947;-65
2022/08/07 21:27:49;;;;;;;;;;;;;;;20.42;35.61;99301.94;2617651;54;20438;-67
2022/08/07 21:30:24;;;;;;;;;;;;;;;20.38;35.88;99301.59;2617176;54;19939;-65
2022/08/07 21:33:08;;;;;;;;;;;;;;;20.30;35.58;99307.38;2618744;39;20350;-65
2022/08/07 21:35:41;;;;;;;;;;;;;;;20.26;35.72;99303.56;2617873;54;20450;-67
2022/08/07 21:38:37;;;;;;;;;;;;;;;20.13;36.29;99306.56;2617743;54;19961;-67
2022/08/07 21:41:19;;;;;;;;;;;;;;;20.09;36.39;99311.59;2618098;39;20354;-67
2022/08/07 21:43:56;;;;;;;;;;;;;;;20.01;36.21;99301.25;2617492;39;20338;-67
2022/08/07 21:46:32;;;;;;;;;;;;;;;19.94;36.73;99305.94;2617502;54;20472;-67
2022/08/07 21:49:08;;;;;;;;;;;;;;;19.88;37.19;99302.38;2617318;51;19958;-67
2022/08/07 21:51:48;;;;;;;;;;;;;;;19.78;37.37;99302.97;2617599;54;19946;-67
2022/08/07 21:54:29;;;;;;;;;;;;;;;19.81;37.67;99300.88;2617526;54;19954;-67
2022/08/07 21:57:07;;;;;;;;;;;;;;;19.81;37.59;99296.34;2617548;54;20532;-67
2022/08/07 21:59:53;;;;;;;;;;;;;;;19.81;37.58;99298.19;2617633;54;19955;-67
2022/08/07 22:02:41;;;;;;;;;;;;;;;19.70;37.99;99305.25;2617908;54;19962;-66
2022/08/07 22:05:20;;;;;;;;;;;;;;;19.72;38.03;99303.97;2618161;54;19939;-67
2022/08/07 22:08:10;;;;;;;;;;;;;;;19.74;37.94;99306.38;2617599;54;19994;-66
2022/08/07 22:10:40;;;;;;;;;;;;;;;19.63;38.69;99308.06;2618297;54;19943;-66
2022/08/07 22:13:14;;;;;;;;;;;;;;;19.48;38.90;99319.28;2617772;54;19969;-67
2022/08/07 22:15:47;;;;;;;;;;;;;;;19.43;39.20;99316.50;2617606;54;20026;-65
2022/08/07 22:18:38;;;;;;;;;;;;;;;19.32;39.45;99321.91;2617805;54;19953;-68
2022/08/07 22:21:14;;;;;;;;;;;;;;;19.20;39.23;99321.91;2617425;54;19946;-67
2022/08/07 22:23:52;;;;;;;;;;;;;;;19.13;39.70;99332.75;2617536;54;19946;-66
2022/08/07 22:26:23;;;;;;;;;;;;;;;19.06;39.42;99324.03;2617392;54;19957;-68
2022/08/07 22:28:56;;;;;;;;;;;;;;;19.02;39.67;99333.56;2617020;47;19942;-67
2022/08/07 22:31:32;;;;;;;;;;;;;;;19.02;40.11;99336.25;2617034;47;19964;-67
2022/08/07 22:34:28;;;;;;;;;;;;;;;19.02;39.89;99330.91;2618442;54;20038;-67